Time;durP1;ratioP1;P1;durP2;ratioP2;P2;SDS_P1;SDS_P2;PMS_P1;PMS_P2;Temp;Humidity;BMP_temperature;BMP_pressure;BME280_temperature;BME280_humidity;BME280_pressure;Samples;Min_cycle;Max_cycle;Signal;HPM_P1;HPM_P2
2023/06/25 00:00:23;;;;;;;7.38;6.68;;;22.50;96.00;;;;;;4944709;28;20030;-85
2023/06/25 00:02:49;;;;;;;7.90;6.55;;;22.50;96.00;;;;;;4977264;28;20101;-86
2023/06/25 00:05:15;;;;;;;7.05;6.18;;;22.50;96.00;;;;;;4976634;28;20471;-85
2023/06/25 00:07:40;;;;;;;7.82;7.00;;;22.50;96.00;;;;;;4977778;28;20487;-85
2023/06/25 00:10:07;;;;;;;7.10;6.32;;;22.50;96.00;;;;;;4980116;28;20502;-86
2023/06/25 00:12:33;;;;;;;6.60;5.82;;;22.40;95.90;;;;;;4997866;28;20034;-83
2023/06/25 00:14:58;;;;;;;6.20;5.60;;;22.40;95.90;;;;;;4980230;28;20435;-84
2023/06/25 00:17:27;;;;;;;6.97;6.28;;;22.40;95.90;;;;;;4980246;28;20084;-85
2023/06/25 00:19:54;;;;;;;7.57;6.88;;;22.40;95.90;;;;;;4964310;28;20057;-84
2023/06/25 00:22:20;;;;;;;6.97;6.28;;;22.30;95.90;;;;;;4980521;28;20039;-84
2023/06/25 00:24:47;;;;;;;7.00;6.30;;;22.30;95.90;;;;;;4997165;28;20094;-85
2023/06/25 00:27:12;;;;;;;6.97;6.28;;;22.30;95.90;;;;;;4980235;28;20023;-85
2023/06/25 00:29:38;;;;;;;8.75;6.80;;;22.30;95.90;;;;;;4964305;28;20113;-84
2023/06/25 00:32:04;;;;;;;8.25;6.50;;;22.30;95.90;;;;;;4964683;28;20018;-84
2023/06/25 00:34:30;;;;;;;7.75;6.65;;;22.20;95.90;;;;;;4965083;28;20039;-84
2023/06/25 00:36:55;;;;;;;8.15;7.35;;;22.20;95.90;;;;;;4948305;28;20034;-84
2023/06/25 00:39:21;;;;;;;8.18;6.53;;;22.20;95.90;;;;;;4980815;28;20034;-84
2023/06/25 00:41:50;;;;;;;7.53;6.82;;;22.20;96.00;;;;;;4980847;28;20038;-84
2023/06/25 00:44:16;;;;;;;8.10;7.28;;;22.20;96.00;;;;;;4984566;28;20023;-85
2023/06/25 00:46:41;;;;;;;7.93;7.13;;;22.10;95.90;;;;;;4987988;28;20042;-85
2023/06/25 00:49:07;;;;;;;8.65;7.72;;;22.10;96.00;;;;;;4987669;28;20030;-86
2023/06/25 00:51:35;;;;;;;7.95;7.15;;;22.10;95.90;;;;;;5019011;28;20015;-83
2023/06/25 00:54:05;;;;;;;8.43;7.53;;;22.10;95.90;;;;;;5018635;28;20026;-86
2023/06/25 00:56:32;;;;;;;8.13;7.32;;;22.10;95.90;;;;;;5004244;28;20030;-83
2023/06/25 00:59:02;;;;;;;9.93;7.13;;;22.10;95.90;;;;;;4979624;28;20038;-85
2023/06/25 01:01:52;;;;;;;8.13;7.30;;;22.10;95.90;;;;;;4996695;28;20023;-85
2023/06/25 01:04:25;;;;;;;8.30;7.40;;;22.10;95.80;;;;;;4979638;28;20030;-85
2023/06/25 01:06:55;;;;;;;10.13;7.88;;;22.10;95.80;;;;;;4979065;28;20089;-85
2023/06/25 01:09:22;;;;;;;8.82;7.40;;;22.10;95.80;;;;;;4996422;28;20113;-84
2023/06/25 01:11:59;;;;;;;8.60;7.60;;;22.10;95.80;;;;;;4978827;28;20030;-84
2023/06/25 01:14:27;;;;;;;11.50;7.20;;;22.10;95.80;;;;;;4978668;28;20022;-85
2023/06/25 01:16:53;;;;;;;9.02;7.70;;;22.10;95.90;;;;;;4963141;28;20439;-85
2023/06/25 01:19:19;;;;;;;9.93;8.00;;;22.10;95.90;;;;;;4994872;28;20133;-85
2023/06/25 01:21:46;;;;;;;8.20;7.32;;;22.10;95.90;;;;;;4946437;28;20042;-86
2023/06/25 01:24:12;;;;;;;8.57;7.70;;;22.10;96.00;;;;;;4962734;28;20034;-86
2023/06/25 01:26:38;;;;;;;9.05;8.07;;;22.10;96.00;;;;;;4962299;28;20121;-86
2023/06/25 01:29:03;;;;;;;8.52;7.45;;;22.10;96.00;;;;;;4946534;28;20058;-86
2023/06/25 01:31:30;;;;;;;8.40;7.50;;;22.10;96.10;;;;;;4945960;28;20035;-85
2023/06/25 01:33:57;;;;;;;9.23;7.28;;;22.00;96.10;;;;;;4962573;28;20045;-85
2023/06/25 01:36:23;;;;;;;9.52;8.52;;;22.00;96.10;;;;;;4962523;28;20038;-85
2023/06/25 01:38:48;;;;;;;8.93;8.05;;;22.00;96.20;;;;;;4961908;28;20077;-85
2023/06/25 01:41:14;;;;;;;8.85;7.97;;;22.00;96.30;;;;;;4946351;28;20451;-85
2023/06/25 01:43:40;;;;;;;11.00;7.85;;;22.00;96.30;;;;;;4962195;28;20387;-84
2023/06/25 01:46:06;;;;;;;9.20;8.27;;;21.90;96.30;;;;;;4995346;28;20046;-85
2023/06/25 01:48:31;;;;;;;13.65;8.45;;;22.00;96.40;;;;;;4962101;28;20054;-85
2023/06/25 01:50:58;;;;;;;9.73;8.73;;;21.90;96.50;;;;;;4978308;28;20034;-85
2023/06/25 01:53:23;;;;;;;9.55;8.65;;;21.90;96.50;;;;;;4995499;28;20372;-86
2023/06/25 01:55:49;;;;;;;9.88;8.88;;;21.90;96.60;;;;;;4978279;28;20035;-85
2023/06/25 01:58:14;;;;;;;9.63;8.63;;;21.90;96.60;;;;;;4964049;28;20026;-85
2023/06/25 02:00:40;;;;;;;9.30;8.40;;;21.90;96.60;;;;;;4965095;28;20415;-85
2023/06/25 02:03:06;;;;;;;9.45;8.35;;;21.90;96.70;;;;;;4950173;28;20041;-85
2023/06/25 02:05:31;;;;;;;9.68;8.77;;;21.90;96.70;;;;;;4962128;28;20535;-85
2023/06/25 02:07:57;;;;;;;10.50;9.10;;;21.80;96.70;;;;;;4962134;28;20034;-85
2023/06/25 02:10:23;;;;;;;9.93;8.93;;;21.80;96.80;;;;;;4946155;28;20374;-85
2023/06/25 02:12:48;;;;;;;12.45;9.70;;;21.80;96.80;;;;;;4977589;28;20034;-85
2023/06/25 02:15:14;;;;;;;11.25;8.82;;;21.80;96.80;;;;;;4961626;28;20038;-85
2023/06/25 02:17:40;;;;;;;9.68;8.40;;;21.80;96.90;;;;;;4977885;28;20032;-85
2023/06/25 02:20:06;;;;;;;10.65;9.02;;;21.80;96.90;;;;;;4977460;28;20488;-85
2023/06/25 02:22:32;;;;;;;9.13;8.25;;;21.80;97.00;;;;;;4978162;28;20131;-85
2023/06/25 02:24:57;;;;;;;10.40;9.40;;;21.80;97.00;;;;;;4962021;28;20365;-85
2023/06/25 02:27:23;;;;;;;10.68;9.60;;;21.70;97.00;;;;;;4945831;28;20072;-87
2023/06/25 02:29:49;;;;;;;10.88;8.88;;;21.70;97.10;;;;;;4961157;28;20026;-85
2023/06/25 02:32:14;;;;;;;10.60;9.25;;;21.70;97.10;;;;;;4977978;28;20034;-86
2023/06/25 02:34:40;;;;;;;11.05;9.65;;;21.70;97.40;;;;;;4961338;28;20035;-85
2023/06/25 02:37:15;;;;;;;9.35;8.45;;;21.70;97.20;;;;;;4994837;28;20018;-85
2023/06/25 02:39:42;;;;;;;10.07;8.98;;;21.70;97.20;;;;;;4996278;28;20113;-85
2023/06/25 02:42:07;;;;;;;10.60;9.30;;;21.60;97.20;;;;;;4966100;28;20041;-85
2023/06/25 02:44:34;;;;;;;10.43;9.38;;;21.70;97.30;;;;;;4997813;28;20026;-83
2023/06/25 02:47:00;;;;;;;10.45;8.82;;;21.60;97.30;;;;;;5018605;28;20033;-84
2023/06/25 02:49:25;;;;;;;10.65;9.43;;;21.60;97.40;;;;;;4985340;28;20022;-85
2023/06/25 02:51:51;;;;;;;10.40;9.32;;;21.60;97.40;;;;;;5017625;28;20326;-85
2023/06/25 02:54:17;;;;;;;15.18;10.65;;;21.60;97.40;;;;;;5000344;28;20041;-86
2023/06/25 02:56:42;;;;;;;11.00;9.90;;;21.50;97.40;;;;;;5005197;28;20035;-85
2023/06/25 02:59:08;;;;;;;12.32;10.15;;;21.50;97.50;;;;;;4977956;28;20541;-85
2023/06/25 03:01:33;;;;;;;10.32;9.20;;;21.50;97.60;;;;;;4977404;28;20555;-84
2023/06/25 03:03:59;;;;;;;10.82;9.52;;;21.50;97.60;;;;;;4961250;28;20034;-85
2023/06/25 03:06:25;;;;;;;11.35;9.50;;;21.50;97.60;;;;;;4994739;28;20031;-86
2023/06/25 03:08:50;;;;;;;11.30;9.43;;;21.50;97.70;;;;;;4961062;28;20475;-85
2023/06/25 03:11:16;;;;;;;10.38;9.38;;;21.50;97.70;;;;;;4961353;28;20054;-86
2023/06/25 03:13:42;;;;;;;10.90;9.60;;;21.50;97.70;;;;;;4976975;28;20031;-86
2023/06/25 03:16:07;;;;;;;12.15;10.18;;;21.40;97.70;;;;;;4944780;28;20041;-86
2023/06/25 03:18:33;;;;;;;10.63;9.48;;;21.40;97.70;;;;;;4977012;28;20037;-86
2023/06/25 03:20:58;;;;;;;10.20;9.20;;;21.40;97.80;;;;;;4960147;28;20073;-86
2023/06/25 03:23:24;;;;;;;10.60;9.50;;;21.40;97.80;;;;;;4976462;28;20039;-86
2023/06/25 03:25:50;;;;;;;10.60;9.50;;;21.40;97.80;;;;;;4944689;28;20035;-86
2023/06/25 03:28:15;;;;;;;10.75;9.65;;;21.30;97.80;;;;;;4976299;28;20029;-86
2023/06/25 03:30:41;;;;;;;11.50;10.27;;;21.30;97.80;;;;;;4944549;28;20031;-86
2023/06/25 03:33:06;;;;;;;10.32;9.32;;;21.30;97.90;;;;;;4993196;28;20033;-86
2023/06/25 03:35:32;;;;;;;11.30;10.10;;;21.30;97.90;;;;;;4944501;28;20041;-85
2023/06/25 03:37:58;;;;;;;10.50;9.40;;;21.30;97.90;;;;;;4944499;28;20029;-85
2023/06/25 03:40:24;;;;;;;10.52;9.50;;;21.30;97.90;;;;;;4960657;28;20034;-85
2023/06/25 03:42:49;;;;;;;11.45;10.18;;;21.30;98.00;;;;;;4978273;28;20174;-85
2023/06/25 03:45:16;;;;;;;10.93;9.60;;;21.30;98.00;;;;;;4964367;28;20473;-84
2023/06/25 03:47:41;;;;;;;11.43;10.07;;;21.30;98.00;;;;;;4948392;28;20068;-83
2023/06/25 03:50:07;;;;;;;10.32;9.18;;;21.30;98.10;;;;;;4964584;28;20428;-85
2023/06/25 03:52:33;;;;;;;10.57;9.52;;;21.20;98.10;;;;;;4964083;28;20030;-85
2023/06/25 03:54:58;;;;;;;11.18;9.98;;;21.20;98.10;;;;;;4997591;28;20166;-85
2023/06/25 03:57:24;;;;;;;11.98;10.50;;;21.20;98.10;;;;;;4963822;28;20084;-85
2023/06/25 03:59:50;;;;;;;10.88;9.77;;;21.20;98.10;;;;;;4980046;28;20037;-84
2023/06/25 04:02:15;;;;;;;11.38;9.73;;;21.20;98.20;;;;;;4979939;28;20027;-85
2023/06/25 04:04:41;;;;;;;12.32;10.00;;;21.20;98.20;;;;;;4979988;28;20121;-85
2023/06/25 04:07:07;;;;;;;11.75;9.80;;;21.20;98.20;;;;;;4979875;28;20061;-85
2023/06/25 04:09:32;;;;;;;11.88;10.68;;;21.20;98.20;;;;;;4980150;28;20113;-85
2023/06/25 04:11:58;;;;;;;10.38;9.38;;;21.20;98.30;;;;;;4979920;28;20445;-85
2023/06/25 04:14:24;;;;;;;11.70;10.50;;;21.20;98.30;;;;;;4963834;28;20061;-85
2023/06/25 04:16:49;;;;;;;11.43;10.23;;;21.20;98.30;;;;;;4980121;28;20113;-85
2023/06/25 04:19:15;;;;;;;11.85;10.65;;;21.10;98.30;;;;;;4979741;28;20050;-85
2023/06/25 04:21:41;;;;;;;11.35;10.18;;;21.20;98.60;;;;;;4963859;28;20038;-85
2023/06/25 04:24:06;;;;;;;11.65;10.27;;;21.20;98.30;;;;;;4980041;28;20034;-85
2023/06/25 04:26:32;;;;;;;13.00;10.65;;;21.20;98.30;;;;;;4948074;28;20487;-85
2023/06/25 04:28:58;;;;;;;12.43;10.73;;;21.10;98.30;;;;;;4979945;28;20380;-85
2023/06/25 04:31:24;;;;;;;11.57;9.85;;;21.20;98.30;;;;;;4980872;28;20034;-85
2023/06/25 04:33:50;;;;;;;11.48;10.27;;;21.20;98.40;;;;;;4964252;28;20043;-85
2023/06/25 04:36:17;;;;;;;11.10;9.38;;;21.20;98.30;;;;;;4980190;28;20041;-85
2023/06/25 04:38:43;;;;;;;12.40;10.30;;;21.20;98.30;;;;;;4980263;28;20122;-85
2023/06/25 04:41:08;;;;;;;11.80;10.60;;;21.20;98.30;;;;;;4948344;28;20069;-85
2023/06/25 04:43:34;;;;;;;11.25;9.85;;;21.20;98.30;;;;;;4987978;28;20022;-85
2023/06/25 04:46:00;;;;;;;11.13;9.93;;;21.30;98.30;;;;;;4987712;28;20034;-85
2023/06/25 04:48:26;;;;;;;12.00;10.48;;;21.30;98.30;;;;;;5020967;28;20034;-85
2023/06/25 04:50:51;;;;;;;12.80;11.38;;;21.30;98.30;;;;;;5003181;28;20081;-85
2023/06/25 04:53:17;;;;;;;13.70;11.30;;;21.30;98.30;;;;;;4986530;28;20038;-85
2023/06/25 04:55:43;;;;;;;11.77;10.52;;;21.30;98.20;;;;;;4967413;28;20035;-86
2023/06/25 04:58:09;;;;;;;12.98;10.75;;;21.30;98.20;;;;;;4997005;28;20027;-86
2023/06/25 05:00:34;;;;;;;11.73;10.55;;;21.30;98.20;;;;;;4979786;28;20022;-86
2023/06/25 05:03:00;;;;;;;11.70;10.50;;;21.40;98.20;;;;;;4947061;28;20034;-86
2023/06/25 05:05:25;;;;;;;12.35;11.02;;;21.40;98.20;;;;;;4979085;28;20027;-85
2023/06/25 05:07:51;;;;;;;13.50;11.77;;;21.40;98.10;;;;;;4979332;28;20444;-85
2023/06/25 05:10:21;;;;;;;13.88;11.00;;;21.40;97.90;;;;;;4979061;28;20065;-85
2023/06/25 05:12:47;;;;;;;11.90;10.48;;;21.40;97.90;;;;;;4978956;28;20057;-85
2023/06/25 05:15:12;;;;;;;11.07;9.98;;;21.40;97.90;;;;;;4996139;28;20030;-85
2023/06/25 05:17:38;;;;;;;11.68;10.38;;;21.40;97.90;;;;;;4962425;28;20022;-85
2023/06/25 05:20:05;;;;;;;11.45;10.02;;;21.50;97.90;;;;;;4946417;28;20146;-85
2023/06/25 05:22:30;;;;;;;11.43;10.10;;;21.50;97.80;;;;;;4962508;28;20379;-86
2023/06/25 05:24:56;;;;;;;10.95;9.88;;;21.50;97.70;;;;;;4946558;28;20034;-85
2023/06/25 05:27:22;;;;;;;11.07;9.90;;;21.60;97.70;;;;;;4962484;28;20101;-85
2023/06/25 05:29:47;;;;;;;10.25;9.13;;;21.60;97.60;;;;;;4978808;28;20502;-86
2023/06/25 05:32:15;;;;;;;11.55;9.57;;;21.60;97.60;;;;;;4978498;28;20030;-86
2023/06/25 05:34:41;;;;;;;9.50;8.52;;;21.70;97.50;;;;;;4978722;28;20371;-86
2023/06/25 05:37:06;;;;;;;10.32;8.95;;;21.70;97.40;;;;;;4962399;28;20133;-85
2023/06/25 05:39:32;;;;;;;10.52;9.52;;;21.70;97.40;;;;;;4962154;28;20546;-86
2023/06/25 05:41:58;;;;;;;9.23;8.30;;;21.70;97.30;;;;;;4945992;28;20022;-86
2023/06/25 05:44:25;;;;;;;9.60;8.60;;;21.80;97.30;;;;;;4978167;28;20030;-86
2023/06/25 05:46:51;;;;;;;9.20;8.25;;;21.80;97.30;;;;;;4962115;28;20511;-86
2023/06/25 05:49:17;;;;;;;8.98;8.10;;;21.80;97.20;;;;;;4977885;28;20034;-86
2023/06/25 05:51:43;;;;;;;9.45;8.48;;;21.90;97.20;;;;;;4945851;28;20034;-86
2023/06/25 05:54:09;;;;;;;9.40;8.38;;;21.90;97.30;;;;;;4977882;28;20023;-85
2023/06/25 05:56:34;;;;;;;10.75;8.93;;;21.90;97.00;;;;;;4978240;28;20080;-86
2023/06/25 05:59:00;;;;;;;11.80;8.93;;;22.00;96.90;;;;;;4961735;28;20038;-85
2023/06/25 06:01:26;;;;;;;8.90;8.02;;;22.00;96.70;;;;;;4977728;28;20030;-86
2023/06/25 06:03:52;;;;;;;10.02;9.02;;;22.00;96.70;;;;;;4961714;28;20038;-86
2023/06/25 06:06:18;;;;;;;10.48;9.40;;;22.00;96.50;;;;;;4994653;28;20035;-86
2023/06/25 06:08:43;;;;;;;9.02;8.13;;;22.10;96.40;;;;;;4977805;28;20026;-86
2023/06/25 06:11:10;;;;;;;9.85;8.50;;;22.10;96.30;;;;;;4977716;28;20031;-86
2023/06/25 06:13:36;;;;;;;9.27;8.32;;;22.10;96.30;;;;;;4961637;28;20100;-86
2023/06/25 06:16:02;;;;;;;9.00;8.10;;;22.20;96.30;;;;;;4995100;28;20035;-85
2023/06/25 06:18:28;;;;;;;10.32;9.32;;;22.20;96.30;;;;;;4993582;28;20026;-85
2023/06/25 06:20:54;;;;;;;9.85;8.85;;;22.20;96.10;;;;;;4945322;28;20108;-86
2023/06/25 06:23:19;;;;;;;8.93;8.02;;;22.30;95.90;;;;;;4961360;28;20026;-86
2023/06/25 06:25:45;;;;;;;11.43;8.30;;;22.30;95.90;;;;;;4961472;28;20121;-85
2023/06/25 06:28:11;;;;;;;9.40;8.23;;;22.40;95.90;;;;;;4977717;28;20039;-86
2023/06/25 06:30:36;;;;;;;9.65;8.50;;;22.40;95.90;;;;;;4961849;28;20030;-85
2023/06/25 06:33:02;;;;;;;10.35;9.32;;;22.40;95.80;;;;;;4994691;28;20031;-85
2023/06/25 06:35:27;;;;;;;9.05;8.15;;;22.50;95.80;;;;;;4978058;28;20045;-86
2023/06/25 06:37:53;;;;;;;9.25;8.13;;;22.50;95.80;;;;;;4977740;28;20384;-86
2023/06/25 06:40:19;;;;;;;8.30;7.40;;;22.50;95.80;;;;;;4977634;28;20468;-86
2023/06/25 06:42:44;;;;;;;8.52;7.72;;;22.60;95.80;;;;;;4977108;28;20038;-86
2023/06/25 06:45:10;;;;;;;8.95;8.05;;;22.60;95.80;;;;;;4995383;28;20022;-86
2023/06/25 06:47:37;;;;;;;8.27;7.47;;;22.70;95.70;;;;;;4995269;28;20014;-86
2023/06/25 06:50:02;;;;;;;9.15;8.10;;;22.80;95.70;;;;;;5001150;28;20034;-85
2023/06/25 06:52:28;;;;;;;7.88;6.97;;;22.80;95.60;;;;;;5000122;28;20035;-85
2023/06/25 06:54:54;;;;;;;9.80;8.80;;;22.90;95.60;;;;;;4997278;28;20034;-84
2023/06/25 06:57:20;;;;;;;8.90;7.95;;;22.90;95.50;;;;;;4950902;28;20037;-86
2023/06/25 06:59:45;;;;;;;8.70;7.28;;;23.00;95.50;;;;;;4995209;28;20030;-86
2023/06/25 07:02:11;;;;;;;9.20;8.13;;;23.10;95.40;;;;;;4995052;28;20383;-86
2023/06/25 07:04:43;;;;;;;8.35;7.35;;;23.20;95.40;;;;;;4977348;28;20058;-86
2023/06/25 07:07:08;;;;;;;8.45;7.65;;;23.20;95.50;;;;;;4961197;28;20472;-86
2023/06/25 07:09:35;;;;;;;8.23;7.40;;;23.30;95.50;;;;;;4960619;28;20078;-86
2023/06/25 07:12:00;;;;;;;10.45;9.35;;;23.30;95.50;;;;;;4977013;28;20023;-86
2023/06/25 07:14:26;;;;;;;9.88;8.48;;;23.40;95.30;;;;;;4944187;28;20034;-86
2023/06/25 07:16:52;;;;;;;7.53;6.82;;;23.50;95.10;;;;;;4961312;28;20030;-86
2023/06/25 07:19:17;;;;;;;8.60;7.60;;;23.50;95.10;;;;;;4998057;28;20047;-86
2023/06/25 07:21:43;;;;;;;9.30;7.78;;;23.60;95.20;;;;;;4964756;28;20027;-86
2023/06/25 07:24:09;;;;;;;8.45;7.65;;;23.70;95.30;;;;;;4980470;28;20030;-86
2023/06/25 07:26:34;;;;;;;10.15;8.32;;;23.60;95.40;;;;;;4964678;28;20038;-87
2023/06/25 07:29:00;;;;;;;8.80;7.90;;;23.70;95.40;;;;;;4964592;28;20026;-86
2023/06/25 07:31:26;;;;;;;8.75;7.25;;;23.80;95.20;;;;;;4980260;28;20113;-87
2023/06/25 07:33:51;;;;;;;7.70;7.00;;;23.90;95.10;;;;;;4980781;28;20034;-86
2023/06/25 07:36:17;;;;;;;8.75;7.22;;;23.90;95.00;;;;;;4964449;28;20034;-87
2023/06/25 07:38:43;;;;;;;7.20;6.43;;;24.00;95.00;;;;;;4948437;28;20034;-87
2023/06/25 07:41:09;;;;;;;8.65;7.82;;;24.10;95.10;;;;;;4980453;28;20061;-86
2023/06/25 07:43:34;;;;;;;7.53;6.72;;;24.10;95.10;;;;;;4964421;28;20038;-87
2023/06/25 07:46:00;;;;;;;8.20;6.93;;;24.10;95.10;;;;;;4964087;28;20031;-87
2023/06/25 07:48:25;;;;;;;7.25;6.55;;;24.20;95.10;;;;;;4980495;28;20102;-84
2023/06/25 07:50:52;;;;;;;7.35;6.65;;;24.30;95.00;;;;;;4964407;28;20468;-84
2023/06/25 07:53:17;;;;;;;6.85;6.03;;;24.30;95.00;;;;;;4980292;28;20031;-85
2023/06/25 07:55:45;;;;;;;6.90;6.20;;;24.40;95.00;;;;;;4980484;28;20038;-85
2023/06/25 07:58:10;;;;;;;7.00;6.30;;;24.40;94.90;;;;;;4948541;28;20029;-86
2023/06/25 08:00:36;;;;;;;6.25;5.65;;;24.50;94.80;;;;;;4997811;28;20027;-86
2023/06/25 08:03:02;;;;;;;6.40;5.75;;;24.50;94.60;;;;;;4964252;28;20105;-87
2023/06/25 08:05:28;;;;;;;6.65;5.72;;;24.60;94.70;;;;;;4979735;28;20101;-86
2023/06/25 08:07:56;;;;;;;7.25;6.18;;;24.70;94.60;;;;;;4964351;28;20039;-86
2023/06/25 08:10:22;;;;;;;6.72;5.80;;;24.70;94.50;;;;;;4964151;28;20440;-86
2023/06/25 08:12:48;;;;;;;6.78;6.07;;;24.80;94.30;;;;;;4997371;28;20073;-86
2023/06/25 08:15:14;;;;;;;6.32;5.72;;;24.80;94.10;;;;;;4963649;28;20065;-87
2023/06/25 08:17:39;;;;;;;7.32;5.85;;;24.90;94.10;;;;;;4979963;28;20023;-87
2023/06/25 08:20:05;;;;;;;6.88;5.30;;;24.90;94.00;;;;;;4979877;28;20059;-87
2023/06/25 08:22:31;;;;;;;5.35;4.85;;;25.10;93.90;;;;;;4979920;28;20236;-86
2023/06/25 08:24:57;;;;;;;5.63;5.03;;;25.10;93.70;;;;;;4947595;28;20034;-87
2023/06/25 08:27:22;;;;;;;6.05;4.80;;;25.20;93.60;;;;;;4979735;28;20066;-87
2023/06/25 08:29:48;;;;;;;5.63;5.00;;;25.20;93.50;;;;;;4963722;28;20436;-87
2023/06/25 08:32:14;;;;;;;5.38;4.88;;;25.30;93.10;;;;;;4963846;28;20486;-86
2023/06/25 08:34:40;;;;;;;5.50;4.97;;;25.40;92.90;;;;;;4947671;28;20065;-87
2023/06/25 08:37:05;;;;;;;4.65;4.22;;;25.50;92.80;;;;;;4980526;28;20034;-86
2023/06/25 08:39:31;;;;;;;7.97;5.07;;;25.50;92.80;;;;;;4964441;28;20452;-87
2023/06/25 08:41:58;;;;;;;5.93;5.35;;;25.50;92.90;;;;;;4949030;28;20026;-86
2023/06/25 08:44:23;;;;;;;6.47;5.22;;;25.70;92.90;;;;;;4949485;28;20030;-86
2023/06/25 08:46:49;;;;;;;7.47;4.88;;;25.70;92.80;;;;;;4950728;28;20034;-87
2023/06/25 08:49:16;;;;;;;6.15;5.53;;;25.70;92.80;;;;;;4982634;28;20104;-85
2023/06/25 08:51:42;;;;;;;6.38;5.60;;;25.80;92.70;;;;;;4987631;28;20015;-86
2023/06/25 08:54:09;;;;;;;6.55;5.32;;;25.80;92.60;;;;;;5001316;28;20049;-84
2023/06/25 08:56:34;;;;;;;5.80;4.97;;;25.90;92.40;;;;;;5018364;28;20033;-85
2023/06/25 08:59:00;;;;;;;5.93;5.35;;;25.90;92.40;;;;;;4998562;28;20054;-88
2023/06/25 09:01:26;;;;;;;6.93;5.53;;;26.00;92.40;;;;;;4996430;28;20062;-84
2023/06/25 09:03:53;;;;;;;6.68;5.93;;;26.10;92.00;;;;;;4970842;28;20046;-85
2023/06/25 09:06:19;;;;;;;6.47;5.88;;;26.20;91.70;;;;;;4980070;28;20035;-85
2023/06/25 09:08:45;;;;;;;5.78;5.18;;;26.20;91.50;;;;;;4996960;28;20034;-87
2023/06/25 09:11:11;;;;;;;5.68;4.97;;;26.20;91.50;;;;;;4963806;28;20030;-86
2023/06/25 09:13:38;;;;;;;5.85;4.78;;;26.30;91.60;;;;;;4996286;28;20034;-86
2023/06/25 09:16:07;;;;;;;5.32;4.82;;;26.40;91.80;;;;;;4980000;28;20039;-85
2023/06/25 09:18:32;;;;;;;6.18;5.57;;;26.50;91.70;;;;;;4998466;28;20041;-85
2023/06/25 09:21:03;;;;;;;6.65;4.70;;;26.50;91.40;;;;;;4995920;28;20059;-86
2023/06/25 09:23:28;;;;;;;;;;;26.60;91.40;;;;;;4979534;28;20022;-86
2023/06/25 09:25:54;;;;;;;4.63;4.20;;;26.60;91.40;;;;;;4962745;28;20378;-86
2023/06/25 09:28:20;;;;;;;4.82;4.40;;;26.60;91.40;;;;;;4962783;28;20061;-85
2023/06/25 09:30:46;;;;;;;7.80;5.18;;;26.70;91.40;;;;;;4979349;28;20376;-87
2023/06/25 09:33:13;;;;;;;5.18;4.68;;;26.80;91.20;;;;;;4978619;28;20026;-85
2023/06/25 09:35:38;;;;;;;5.63;5.03;;;26.90;91.00;;;;;;4996075;28;20447;-86
2023/06/25 09:38:05;;;;;;;5.22;4.72;;;26.90;91.10;;;;;;4962645;28;20062;-86
2023/06/25 09:40:31;;;;;;;5.05;4.55;;;26.90;91.10;;;;;;4977687;28;20034;-85
2023/06/25 09:42:58;;;;;;;5.88;4.78;;;27.00;91.10;;;;;;4978624;28;20109;-86
2023/06/25 09:45:26;;;;;;;4.82;4.35;;;27.00;91.10;;;;;;4995670;28;20110;-86
2023/06/25 09:47:54;;;;;;;4.72;4.22;;;27.10;91.10;;;;;;4995772;28;20492;-86
2023/06/25 09:50:44;;;;;;;5.13;4.30;;;27.10;90.90;;;;;;4978900;28;20054;-86
2023/06/25 09:53:17;;;;;;;5.57;4.22;;;27.20;90.80;;;;;;4995134;28;20030;-86
2023/06/25 09:55:45;;;;;;;4.40;4.00;;;27.20;90.70;;;;;;4995492;28;20272;-86
2023/06/25 09:58:10;;;;;;;5.10;4.60;;;27.30;90.70;;;;;;4977622;28;20069;-85
2023/06/25 10:00:38;;;;;;;4.97;4.18;;;27.40;90.60;;;;;;4961672;28;20084;-87
2023/06/25 10:03:04;;;;;;;4.40;4.00;;;27.40;90.50;;;;;;4962599;28;20038;-86
2023/06/25 10:05:31;;;;;;;5.43;4.30;;;27.40;90.20;;;;;;4978338;28;20483;-86
2023/06/25 10:07:58;;;;;;;4.57;3.88;;;27.50;89.60;;;;;;4978335;28;20085;-87
2023/06/25 10:10:26;;;;;;;5.53;3.90;;;27.50;89.40;;;;;;4995162;28;20057;-86
2023/06/25 10:12:52;;;;;;;4.43;3.88;;;27.60;89.30;;;;;;4995555;28;20098;-86
2023/06/25 10:15:35;;;;;;;4.72;4.22;;;27.60;89.20;;;;;;4977965;28;20022;-88
2023/06/25 10:18:07;;;;;;;4.78;4.28;;;27.60;89.30;;;;;;4978088;28;20023;-86
2023/06/25 10:20:35;;;;;;;4.75;4.28;;;27.70;89.20;;;;;;4961558;28;20145;-87
2023/06/25 10:23:06;;;;;;;4.50;3.88;;;27.70;89.20;;;;;;4978062;28;20038;-87
2023/06/25 10:25:32;;;;;;;4.88;4.38;;;27.80;89.00;;;;;;4978091;28;20022;-87
2023/06/25 10:28:03;;;;;;;4.35;3.95;;;27.80;88.70;;;;;;4961993;28;20122;-87
2023/06/25 10:30:45;;;;;;;5.82;4.13;;;27.90;88.70;;;;;;4977778;28;20022;-87
2023/06/25 10:33:15;;;;;;;4.80;4.30;;;27.90;88.10;;;;;;4977917;28;20022;-87
2023/06/25 10:35:45;;;;;;;4.43;4.03;;;27.90;88.00;;;;;;4995124;28;20057;-87
2023/06/25 10:38:11;;;;;;;4.68;4.28;;;28.00;88.20;;;;;;4977514;28;20066;-84
2023/06/25 10:40:39;;;;;;;4.60;4.20;;;28.00;88.10;;;;;;4961397;28;20054;-84
2023/06/25 10:43:05;;;;;;;5.00;4.50;;;28.10;86.90;;;;;;4995041;28;20034;-84
2023/06/25 10:45:31;;;;;;;6.93;4.18;;;28.10;86.20;;;;;;4994952;28;20087;-84
2023/06/25 10:48:26;;;;;;;4.53;3.65;;;28.20;86.00;;;;;;4977113;28;20038;-85
2023/06/25 10:50:52;;;;;;;4.32;3.65;;;28.20;86.50;;;;;;4956566;28;20545;-84
2023/06/25 10:53:20;;;;;;;4.72;3.70;;;28.20;86.30;;;;;;4995038;28;20022;-85
2023/06/25 10:55:49;;;;;;;9.20;3.80;;;28.30;85.50;;;;;;4994902;28;20130;-85
2023/06/25 10:58:19;;;;;;;4.47;4.07;;;28.40;86.10;;;;;;4978359;28;20029;-85
2023/06/25 11:00:45;;;;;;;4.47;4.05;;;28.50;85.60;;;;;;4987368;28;20007;-84
2023/06/25 11:03:12;;;;;;;4.95;4.25;;;28.50;85.20;;;;;;5001070;28;20049;-84
2023/06/25 11:05:42;;;;;;;4.38;3.97;;;28.60;84.60;;;;;;5018574;28;20011;-85
2023/06/25 11:08:08;;;;;;;4.60;4.10;;;28.60;84.00;;;;;;5000604;28;20019;-83
2023/06/25 11:10:38;;;;;;;4.32;3.90;;;28.70;84.00;;;;;;5016358;28;20033;-83
2023/06/25 11:13:04;;;;;;;;;;;28.70;83.30;;;;;;4983183;28;20022;-84
2023/06/25 11:15:33;;;;;;;4.10;3.70;;;28.80;83.20;;;;;;4996854;28;19910;-85
2023/06/25 11:17:59;;;;;;;5.82;4.05;;;28.80;83.50;;;;;;5009153;28;20027;-85
2023/06/25 11:20:26;;;;;;;4.15;3.75;;;28.80;83.60;;;;;;4994496;28;20374;-84
2023/06/25 11:22:54;;;;;;;3.88;3.58;;;28.80;83.60;;;;;;4976188;28;20165;-84
2023/06/25 11:25:20;;;;;;;4.10;3.70;;;28.80;83.80;;;;;;4993615;28;20027;-84
2023/06/25 11:27:47;;;;;;;4.35;3.90;;;28.80;83.80;;;;;;4976048;28;20037;-83
2023/06/25 11:30:12;;;;;;;4.45;3.78;;;28.90;83.80;;;;;;4976918;28;20050;-83
2023/06/25 11:32:42;;;;;;;4.00;3.60;;;28.90;83.70;;;;;;4976632;28;20084;-83
2023/06/25 11:35:10;;;;;;;4.73;4.10;;;28.90;83.50;;;;;;4961169;28;20054;-83
2023/06/25 11:37:47;;;;;;;4.60;3.88;;;29.00;83.30;;;;;;4960827;28;20027;-83
2023/06/25 11:40:32;;;;;;;4.20;3.80;;;29.00;82.70;;;;;;4994237;28;20019;-83
2023/06/25 11:42:58;;;;;;;3.88;3.30;;;29.00;82.20;;;;;;4976416;28;20507;-84
2023/06/25 11:45:24;;;;;;;4.07;3.67;;;29.10;81.80;;;;;;4976256;28;20074;-84
2023/06/25 11:47:53;;;;;;;4.22;3.83;;;29.10;81.80;;;;;;4976649;28;20081;-83
2023/06/25 11:50:26;;;;;;;5.10;3.77;;;29.10;81.70;;;;;;4994040;28;20030;-83
2023/06/25 11:52:53;;;;;;;5.03;3.90;;;29.10;81.40;;;;;;4960022;28;20844;-83
2023/06/25 11:55:21;;;;;;;4.20;3.80;;;29.10;81.20;;;;;;4976273;28;20395;-84
2023/06/25 11:57:50;;;;;;;4.07;3.67;;;29.10;80.80;;;;;;4960346;28;20030;-83
2023/06/25 12:00:16;;;;;;;3.70;3.40;;;29.20;80.30;;;;;;4976517;28;20021;-84
2023/06/25 12:02:42;;;;;;;3.83;3.53;;;29.20;80.40;;;;;;4976452;28;20034;-83
2023/06/25 12:05:09;;;;;;;3.72;3.42;;;29.20;80.30;;;;;;4979731;28;20035;-84
2023/06/25 12:07:35;;;;;;;4.57;3.90;;;29.30;80.00;;;;;;4980041;28;20018;-83
2023/06/25 12:10:00;;;;;;;3.63;3.30;;;29.30;79.60;;;;;;4979850;28;20437;-83
2023/06/25 12:12:26;;;;;;;3.92;3.53;;;29.30;79.00;;;;;;4980056;28;20030;-83
2023/06/25 12:14:52;;;;;;;4.20;3.80;;;29.40;78.80;;;;;;4979562;28;20041;-83
2023/06/25 12:17:17;;;;;;;5.15;3.22;;;29.40;78.20;;;;;;4963705;28;20026;-83
2023/06/25 12:19:43;;;;;;;4.90;3.70;;;29.50;78.30;;;;;;4979353;28;20059;-83
2023/06/25 12:22:10;;;;;;;4.30;3.60;;;29.50;78.70;;;;;;4997190;28;20026;-83
2023/06/25 12:24:36;;;;;;;3.70;3.38;;;29.50;78.80;;;;;;4996843;28;20027;-83
2023/06/25 12:27:02;;;;;;;4.10;3.70;;;29.50;78.40;;;;;;4979635;28;20030;-84
2023/06/25 12:29:28;;;;;;;3.78;3.47;;;29.60;78.00;;;;;;4963595;28;20025;-83
2023/06/25 12:31:53;;;;;;;3.92;3.60;;;29.60;77.50;;;;;;4979344;28;20114;-83
2023/06/25 12:34:19;;;;;;;3.70;3.40;;;29.60;77.60;;;;;;4996879;28;20030;-83
2023/06/25 12:36:45;;;;;;;3.92;3.60;;;29.70;77.80;;;;;;4979571;28;20125;-83
2023/06/25 12:39:10;;;;;;;4.00;3.70;;;29.70;77.80;;;;;;4963839;28;20054;-83